Terminal Aerodrome Forecast
Issued by NWS Portland, ME

Current Version | Previous Version | Text Only | Print | Product List | Glossary On
Versions: 1 2 3 4 5 6 7 8 9 10 11 12 13 14 15 16 17 18 19
000 FTUS41 KGYX 282320 TAFPWM TAF KPWM 282320Z 2900/2924 20007KT P6SM SCT250 FM290600 05006KT P6SM SCT250 FM291500 12007KT P6SM BKN200 FM291900 18009KT P6SM BKN200=

USA.gov is the U.S. government's official web portal to all federal, state and local government web resources and services.